sensor_id;sensor_type;location;lat;lon;timestamp;pressure;altitude;pressure_sealevel;temperature;humidity
74678;BME280;67324;56.326;43.982;2023-07-20T00:00:39;98766.34;;;22.13;56.51
74678;BME280;67324;56.326;43.982;2023-07-20T00:03:12;98771.81;;;22.18;56.47
74678;BME280;67324;56.326;43.982;2023-07-20T00:05:45;98778.09;;;22.17;56.57
74678;BME280;67324;56.326;43.982;2023-07-20T00:08:30;98773.88;;;22.16;56.55
74678;BME280;67324;56.326;43.982;2023-07-20T00:10:56;98772.41;;;22.13;56.60
74678;BME280;67324;56.326;43.982;2023-07-20T00:13:21;98762.72;;;22.14;56.64
74678;BME280;67324;56.326;43.982;2023-07-20T00:15:47;98765.34;;;22.14;56.56
74678;BME280;67324;56.326;43.982;2023-07-20T00:18:13;98765.13;;;22.15;56.55
74678;BME280;67324;56.326;43.982;2023-07-20T00:20:39;98765.13;;;22.15;56.71
74678;BME280;67324;56.326;43.982;2023-07-20T00:23:06;98766.97;;;22.15;56.57
74678;BME280;67324;56.326;43.982;2023-07-20T00:25:32;98767.75;;;22.15;56.64
74678;BME280;67324;56.326;43.982;2023-07-20T00:27:59;98768.38;;;22.11;56.61
74678;BME280;67324;56.326;43.982;2023-07-20T00:30:24;98758.66;;;22.11;56.58
74678;BME280;67324;56.326;43.982;2023-07-20T00:32:50;98770.41;;;22.15;56.57
74678;BME280;67324;56.326;43.982;2023-07-20T00:35:35;98772.22;;;22.15;56.62
74678;BME280;67324;56.326;43.982;2023-07-20T00:38:00;98762.28;;;22.10;56.55
74678;BME280;67324;56.326;43.982;2023-07-20T00:40:26;98777.69;;;22.13;56.57
74678;BME280;67324;56.326;43.982;2023-07-20T00:42:52;98771.84;;;22.11;56.68
74678;BME280;67324;56.326;43.982;2023-07-20T00:45:23;98779.50;;;22.13;56.48
74678;BME280;67324;56.326;43.982;2023-07-20T00:47:50;98764.13;;;22.10;56.59
74678;BME280;67324;56.326;43.982;2023-07-20T00:50:16;98778.53;;;22.14;56.61
74678;BME280;67324;56.326;43.982;2023-07-20T00:52:42;98782.94;;;22.13;56.63
74678;BME280;67324;56.326;43.982;2023-07-20T00:55:09;98773.84;;;22.09;56.67
74678;BME280;67324;56.326;43.982;2023-07-20T00:57:34;98773.06;;;22.09;56.60
74678;BME280;67324;56.326;43.982;2023-07-20T01:00:00;98776.88;;;22.13;56.60
74678;BME280;67324;56.326;43.982;2023-07-20T01:02:27;98780.31;;;22.13;56.57
74678;BME280;67324;56.326;43.982;2023-07-20T01:04:53;98777.91;;;22.12;56.65
74678;BME280;67324;56.326;43.982;2023-07-20T01:10:01;98777.91;;;22.12;56.71
74678;BME280;67324;56.326;43.982;2023-07-20T01:12:48;98779.72;;;22.11;56.70
74678;BME280;67324;56.326;43.982;2023-07-20T01:15:17;98775.06;;;22.07;56.62
74678;BME280;67324;56.326;43.982;2023-07-20T01:17:42;98779.31;;;22.08;56.61
74678;BME280;67324;56.326;43.982;2023-07-20T01:20:30;98784.16;;;22.11;56.69
74678;BME280;67324;56.326;43.982;2023-07-20T01:32:06;98789.84;;;22.08;56.66
74678;BME280;67324;56.326;43.982;2023-07-20T01:34:35;98789.22;;;22.06;56.66
74678;BME280;67324;56.326;43.982;2023-07-20T01:37:03;98794.13;;;22.09;56.66
74678;BME280;67324;56.326;43.982;2023-07-20T01:39:30;98800.38;;;22.08;56.65
74678;BME280;67324;56.326;43.982;2023-07-20T01:41:57;98795.91;;;22.08;56.66
74678;BME280;67324;56.326;43.982;2023-07-20T01:44:23;98801.19;;;22.08;56.60
74678;BME280;67324;56.326;43.982;2023-07-20T01:46:49;98788.41;;;22.05;56.66
74678;BME280;67324;56.326;43.982;2023-07-20T01:49:15;98790.25;;;22.05;56.70
74678;BME280;67324;56.326;43.982;2023-07-20T01:51:41;98800.78;;;22.05;56.72
74678;BME280;67324;56.326;43.982;2023-07-20T01:54:06;98795.50;;;22.05;56.78
74678;BME280;67324;56.326;43.982;2023-07-20T01:56:32;98799.56;;;22.07;56.73
74678;BME280;67324;56.326;43.982;2023-07-20T01:58:58;98797.56;;;22.09;56.67
74678;BME280;67324;56.326;43.982;2023-07-20T02:01:25;98795.09;;;22.08;56.60
74678;BME280;67324;56.326;43.982;2023-07-20T02:03:54;98792.88;;;22.05;56.66
74678;BME280;67324;56.326;43.982;2023-07-20T02:06:20;98789.44;;;22.04;56.65
74678;BME280;67324;56.326;43.982;2023-07-20T02:08:48;98798.53;;;22.08;56.69
74678;BME280;67324;56.326;43.982;2023-07-20T02:11:13;98796.94;;;22.07;56.58
74678;BME280;67324;56.326;43.982;2023-07-20T02:13:39;98796.13;;;22.07;56.64
74678;BME280;67324;56.326;43.982;2023-07-20T02:16:05;98793.91;;;22.04;56.74
74678;BME280;67324;56.326;43.982;2023-07-20T02:18:31;98789.44;;;22.04;56.65
74678;BME280;67324;56.326;43.982;2023-07-20T02:20:57;98792.06;;;22.04;56.70
74678;BME280;67324;56.326;43.982;2023-07-20T02:23:23;98798.75;;;22.07;56.66
74678;BME280;67324;56.326;43.982;2023-07-20T02:25:48;98793.69;;;22.05;56.70
74678;BME280;67324;56.326;43.982;2023-07-20T02:28:14;98804.44;;;22.04;56.66
74678;BME280;67324;56.326;43.982;2023-07-20T02:30:40;98808.06;;;22.03;56.61
74678;BME280;67324;56.326;43.982;2023-07-20T02:33:24;98802.81;;;22.03;56.67
74678;BME280;67324;56.326;43.982;2023-07-20T02:35:50;98820.03;;;22.05;56.79
74678;BME280;67324;56.326;43.982;2023-07-20T02:38:17;98812.13;;;22.05;56.70
74678;BME280;67324;56.326;43.982;2023-07-20T02:40:43;98823.06;;;22.02;56.62
74678;BME280;67324;56.326;43.982;2023-07-20T02:43:09;98821.84;;;22.05;56.64
74678;BME280;67324;56.326;43.982;2023-07-20T02:45:35;98827.09;;;22.05;56.66
74678;BME280;67324;56.326;43.982;2023-07-20T02:48:05;98831.56;;;22.04;56.83
74678;BME280;67324;56.326;43.982;2023-07-20T02:50:33;98818.81;;;22.01;56.67
74678;BME280;67324;56.326;43.982;2023-07-20T02:53:01;98827.91;;;22.05;56.69
74678;BME280;67324;56.326;43.982;2023-07-20T02:55:27;98835.00;;;22.05;56.66
74678;BME280;67324;56.326;43.982;2023-07-20T02:57:52;98827.09;;;22.05;56.70
74678;BME280;67324;56.326;43.982;2023-07-20T03:00:18;98828.13;;;22.04;56.63
74678;BME280;67324;56.326;43.982;2023-07-20T03:02:46;98837.66;;;22.05;56.74
74678;BME280;67324;56.326;43.982;2023-07-20T03:05:13;98829.53;;;22.00;56.69
74678;BME280;67324;56.326;43.982;2023-07-20T03:07:39;98834.22;;;22.04;56.79
74678;BME280;67324;56.326;43.982;2023-07-20T03:10:06;98844.94;;;22.03;56.72
74678;BME280;67324;56.326;43.982;2023-07-20T03:12:35;98843.31;;;22.02;56.69
74678;BME280;67324;56.326;43.982;2023-07-20T03:15:02;98839.66;;;22.03;56.67
74678;BME280;67324;56.326;43.982;2023-07-20T03:17:31;98852.81;;;22.03;56.61
74678;BME280;67324;56.326;43.982;2023-07-20T03:19:57;98853.84;;;22.02;56.71
74678;BME280;67324;56.326;43.982;2023-07-20T03:22:22;98857.28;;;22.02;56.55
74678;BME280;67324;56.326;43.982;2023-07-20T03:24:49;98852.59;;;21.98;56.73
74678;BME280;67324;56.326;43.982;2023-07-20T03:27:15;98848.16;;;21.98;56.70
74678;BME280;67324;56.326;43.982;2023-07-20T03:29:41;98860.09;;;22.01;56.77
74678;BME280;67324;56.326;43.982;2023-07-20T03:32:07;98859.13;;;22.02;56.73
74678;BME280;67324;56.326;43.982;2023-07-20T03:34:33;98868.41;;;21.98;56.74
74678;BME280;67324;56.326;43.982;2023-07-20T03:37:17;98871.84;;;21.98;56.70
74678;BME280;67324;56.326;43.982;2023-07-20T03:39:43;98864.38;;;22.02;56.77
74678;BME280;67324;56.326;43.982;2023-07-20T03:42:09;98873.28;;;22.01;56.75
74678;BME280;67324;56.326;43.982;2023-07-20T03:44:34;98869.22;;;21.98;56.79
74678;BME280;67324;56.326;43.982;2023-07-20T03:47:00;98869.84;;;22.00;56.71
74678;BME280;67324;56.326;43.982;2023-07-20T03:49:26;98883.81;;;22.01;56.75
74678;BME280;67324;56.326;43.982;2023-07-20T03:51:52;98873.28;;;22.01;56.74
74678;BME280;67324;56.326;43.982;2023-07-20T03:54:18;98873.66;;;21.98;56.73
74678;BME280;67324;56.326;43.982;2023-07-20T03:56:44;98877.31;;;21.97;56.73
74678;BME280;67324;56.326;43.982;2023-07-20T03:59:10;98873.06;;;21.96;56.70
74678;BME280;67324;56.326;43.982;2023-07-20T04:01:36;98882.19;;;22.00;56.80
74678;BME280;67324;56.326;43.982;2023-07-20T04:04:21;98874.47;;;21.98;56.76
74678;BME280;67324;56.326;43.982;2023-07-20T04:06:47;98873.47;;;21.99;56.79
74678;BME280;67324;56.326;43.982;2023-07-20T04:09:12;98885.84;;;21.99;56.66
74678;BME280;67324;56.326;43.982;2023-07-20T04:11:39;98876.31;;;21.98;56.62
74678;BME280;67324;56.326;43.982;2023-07-20T04:14:04;98883.59;;;21.96;56.67
74678;BME280;67324;56.326;43.982;2023-07-20T04:16:30;98886.22;;;21.96;56.52
74678;BME280;67324;56.326;43.982;2023-07-20T04:18:57;98900.81;;;21.98;56.57
74678;BME280;67324;56.326;43.982;2023-07-20T04:21:23;98899.19;;;21.97;56.62
74678;BME280;67324;56.326;43.982;2023-07-20T04:23:49;98895.13;;;21.94;56.61
74678;BME280;67324;56.326;43.982;2023-07-20T04:26:15;98896.13;;;21.93;56.53
74678;BME280;67324;56.326;43.982;2023-07-20T04:28:41;98910.53;;;21.98;56.57
74678;BME280;67324;56.326;43.982;2023-07-20T04:31:16;98903.66;;;21.97;56.51
74678;BME280;67324;56.326;43.982;2023-07-20T04:33:42;98908.91;;;21.97;56.48
74678;BME280;67324;56.326;43.982;2023-07-20T04:36:08;98915.78;;;21.98;56.53
74678;BME280;67324;56.326;43.982;2023-07-20T04:38:35;98893.50;;;21.93;56.60
74678;BME280;67324;56.326;43.982;2023-07-20T04:41:08;98901.59;;;21.92;56.61
74678;BME280;67324;56.326;43.982;2023-07-20T04:43:43;98906.47;;;21.95;56.62
74678;BME280;67324;56.326;43.982;2023-07-20T04:46:13;98904.25;;;21.92;56.62
74678;BME280;67324;56.326;43.982;2023-07-20T04:48:39;98902.00;;;21.96;56.71
74678;BME280;67324;56.326;43.982;2023-07-20T04:51:06;98913.34;;;21.96;56.71
74678;BME280;67324;56.326;43.982;2023-07-20T04:53:32;98910.31;;;21.92;56.69
74678;BME280;67324;56.326;43.982;2023-07-20T04:55:58;98907.69;;;21.92;56.82
74678;BME280;67324;56.326;43.982;2023-07-20T04:58:24;98907.69;;;21.92;56.63
74678;BME280;67324;56.326;43.982;2023-07-20T05:00:52;98920.44;;;21.96;56.71
74678;BME280;67324;56.326;43.982;2023-07-20T05:03:18;98908.69;;;21.91;56.69
74678;BME280;67324;56.326;43.982;2023-07-20T05:05:46;98918.63;;;21.96;56.78
74678;BME280;67324;56.326;43.982;2023-07-20T05:08:12;98933.59;;;21.96;56.77
74678;BME280;67324;56.326;43.982;2023-07-20T05:10:38;98925.13;;;22.00;56.84
74678;BME280;67324;56.326;43.982;2023-07-20T05:13:04;98922.09;;;22.03;57.94
74678;BME280;67324;56.326;43.982;2023-07-20T05:15:32;98922.94;;;22.04;58.46
74678;BME280;67324;56.326;43.982;2023-07-20T05:17:59;98921.50;;;22.01;60.27
74678;BME280;67324;56.326;43.982;2023-07-20T05:20:25;98920.47;;;22.02;61.34
74678;BME280;67324;56.326;43.982;2023-07-20T05:22:51;98915.41;;;22.01;61.35
74678;BME280;67324;56.326;43.982;2023-07-20T05:25:18;98917.22;;;22.00;61.24
74678;BME280;67324;56.326;43.982;2023-07-20T05:27:44;98914.19;;;21.97;61.60
74678;BME280;67324;56.326;43.982;2023-07-20T05:30:11;98910.13;;;21.94;62.06
74678;BME280;67324;56.326;43.982;2023-07-20T05:32:37;98910.13;;;21.94;61.70
74678;BME280;67324;56.326;43.982;2023-07-20T05:35:03;98920.25;;;21.97;61.76
74678;BME280;67324;56.326;43.982;2023-07-20T05:37:29;98915.00;;;21.97;61.81
74678;BME280;67324;56.326;43.982;2023-07-20T05:39:55;98910.53;;;21.98;61.47
74678;BME280;67324;56.326;43.982;2023-07-20T05:42:20;98903.63;;;21.90;61.13
74678;BME280;67324;56.326;43.982;2023-07-20T05:44:46;98910.13;;;21.94;61.09
74678;BME280;67324;56.326;43.982;2023-07-20T05:47:13;98907.91;;;21.98;61.07
74678;BME280;67324;56.326;43.982;2023-07-20T05:49:39;98908.91;;;21.97;60.99
74678;BME280;67324;56.326;43.982;2023-07-20T05:52:06;98915.19;;;21.96;60.79
74678;BME280;67324;56.326;43.982;2023-07-20T05:54:31;98901.22;;;21.95;61.00
74678;BME280;67324;56.326;43.982;2023-07-20T05:57:16;98908.91;;;21.97;60.65
74678;BME280;67324;56.326;43.982;2023-07-20T06:00:00;98913.34;;;21.96;60.57
74678;BME280;67324;56.326;43.982;2023-07-20T06:02:26;98911.13;;;21.93;60.31
74678;BME280;67324;56.326;43.982;2023-07-20T06:04:52;98917.19;;;21.93;60.42
74678;BME280;67324;56.326;43.982;2023-07-20T06:07:17;98907.28;;;21.96;60.17
74678;BME280;67324;56.326;43.982;2023-07-20T06:09:43;98908.47;;;21.93;60.48
74678;BME280;67324;56.326;43.982;2023-07-20T06:12:09;98904.66;;;21.96;60.64
74678;BME280;67324;56.326;43.982;2023-07-20T06:14:35;98915.00;;;21.97;60.41
74678;BME280;67324;56.326;43.982;2023-07-20T06:17:01;98913.34;;;21.96;60.37
74678;BME280;67324;56.326;43.982;2023-07-20T06:19:27;98921.66;;;21.93;60.53
74678;BME280;67324;56.326;43.982;2023-07-20T06:22:11;98918.22;;;21.92;60.27
74678;BME280;67324;56.326;43.982;2023-07-20T06:24:37;98910.50;;;21.91;60.28
74678;BME280;67324;56.326;43.982;2023-07-20T06:27:03;98924.72;;;21.97;60.23
74678;BME280;67324;56.326;43.982;2023-07-20T06:29:31;98925.91;;;21.94;60.21
74678;BME280;67324;56.326;43.982;2023-07-20T06:31:57;98922.28;;;21.95;60.26
74678;BME280;67324;56.326;43.982;2023-07-20T06:34:22;98919.00;;;21.93;60.11
74678;BME280;67324;56.326;43.982;2023-07-20T06:36:48;98924.72;;;21.97;60.15
74678;BME280;67324;56.326;43.982;2023-07-20T06:39:14;98928.34;;;21.96;60.16
74678;BME280;67324;56.326;43.982;2023-07-20T06:41:40;98922.66;;;21.92;60.04
74678;BME280;67324;56.326;43.982;2023-07-20T06:44:06;98926.72;;;21.94;59.98
74678;BME280;67324;56.326;43.982;2023-07-20T06:46:33;98933.81;;;21.94;60.00
74678;BME280;67324;56.326;43.982;2023-07-20T06:48:59;98929.53;;;21.93;59.94
74678;BME280;67324;56.326;43.982;2023-07-20T06:51:24;98933.59;;;21.96;59.79
74678;BME280;67324;56.326;43.982;2023-07-20T06:53:50;98932.38;;;21.91;59.69
74678;BME280;67324;56.326;43.982;2023-07-20T06:56:16;98937.66;;;21.91;59.67
74678;BME280;67324;56.326;43.982;2023-07-20T06:58:42;98937.25;;;21.94;59.60
74678;BME280;67324;56.326;43.982;2023-07-20T07:01:08;98948.59;;;21.95;59.76
74678;BME280;67324;56.326;43.982;2023-07-20T07:03:34;98955.69;;;21.94;59.63
74678;BME280;67324;56.326;43.982;2023-07-20T07:06:00;98953.44;;;21.91;59.64
74678;BME280;67324;56.326;43.982;2023-07-20T07:08:26;98960.94;;;21.94;59.46
74678;BME280;67324;56.326;43.982;2023-07-20T07:10:52;98961.75;;;21.95;59.52
74678;BME280;67324;56.326;43.982;2023-07-20T07:13:19;98962.56;;;21.96;59.53
74678;BME280;67324;56.326;43.982;2023-07-20T07:15:45;98963.59;;;21.94;59.60
74678;BME280;67324;56.326;43.982;2023-07-20T07:18:11;98958.31;;;21.94;59.51
74678;BME280;67324;56.326;43.982;2023-07-20T07:20:37;98952.25;;;21.94;59.39
74678;BME280;67324;56.326;43.982;2023-07-20T07:23:03;98960.94;;;21.94;59.50
74678;BME280;67324;56.326;43.982;2023-07-20T07:25:29;98964.38;;;21.95;59.50
74678;BME280;67324;56.326;43.982;2023-07-20T07:27:55;98966.22;;;21.94;59.35
74678;BME280;67324;56.326;43.982;2023-07-20T07:30:21;98961.53;;;21.90;59.21
74678;BME280;67324;56.326;43.982;2023-07-20T07:32:47;98968.22;;;21.92;59.09
74678;BME280;67324;56.326;43.982;2023-07-20T07:35:13;98956.09;;;21.91;59.30
74678;BME280;67324;56.326;43.982;2023-07-20T07:37:39;98983.00;;;21.93;59.07
74678;BME280;67324;56.326;43.982;2023-07-20T07:40:07;98971.66;;;21.93;59.04
74678;BME280;67324;56.326;43.982;2023-07-20T07:42:34;98974.13;;;21.94;59.25
74678;BME280;67324;56.326;43.982;2023-07-20T07:44:59;98970.06;;;21.92;59.22
74678;BME280;67324;56.326;43.982;2023-07-20T07:47:25;98976.75;;;21.94;59.16
74678;BME280;67324;56.326;43.982;2023-07-20T07:49:51;98973.31;;;21.94;59.08
74678;BME280;67324;56.326;43.982;2023-07-20T07:52:35;98968.22;;;21.92;59.11
74678;BME280;67324;56.326;43.982;2023-07-20T07:55:01;98978.75;;;21.92;59.14
74678;BME280;67324;56.326;43.982;2023-07-20T07:57:27;98988.66;;;21.90;59.01
74678;BME280;67324;56.326;43.982;2023-07-20T07:59:52;98983.84;;;21.94;59.08
74678;BME280;67324;56.326;43.982;2023-07-20T08:02:18;98981.22;;;21.94;59.10
74678;BME280;67324;56.326;43.982;2023-07-20T08:04:45;98980.38;;;21.93;58.95
74678;BME280;67324;56.326;43.982;2023-07-20T08:07:10;98982.59;;;21.90;58.96
74678;BME280;67324;56.326;43.982;2023-07-20T08:09:36;98994.56;;;21.92;58.85
74678;BME280;67324;56.326;43.982;2023-07-20T08:12:20;98994.16;;;21.89;58.87
74678;BME280;67324;56.326;43.982;2023-07-20T08:14:46;98997.59;;;21.89;58.84
74678;BME280;67324;56.326;43.982;2023-07-20T08:17:12;98999.63;;;21.94;58.87
74678;BME280;67324;56.326;43.982;2023-07-20T08:19:38;99004.91;;;21.94;58.88
74678;BME280;67324;56.326;43.982;2023-07-20T08:22:07;99000.44;;;21.94;58.97
74678;BME280;67324;56.326;43.982;2023-07-20T08:24:51;98996.56;;;21.90;58.87
74678;BME280;67324;56.326;43.982;2023-07-20T08:27:17;98991.50;;;21.89;58.80
74678;BME280;67324;56.326;43.982;2023-07-20T08:29:42;99003.47;;;21.91;58.91
74678;BME280;67324;56.326;43.982;2023-07-20T08:32:08;99012.97;;;21.92;58.76
74678;BME280;67324;56.326;43.982;2023-07-20T08:34:34;99010.16;;;21.94;58.77
74678;BME280;67324;56.326;43.982;2023-07-20T08:37:02;99009.34;;;21.93;58.87
74678;BME280;67324;56.326;43.982;2023-07-20T08:39:28;99011.56;;;21.90;58.80
74678;BME280;67324;56.326;43.982;2023-07-20T08:41:55;99019.06;;;21.93;58.75
74678;BME280;67324;56.326;43.982;2023-07-20T08:44:22;99023.34;;;21.94;58.72
74678;BME280;67324;56.326;43.982;2023-07-20T08:46:48;99020.88;;;21.92;58.77
74678;BME280;67324;56.326;43.982;2023-07-20T08:49:16;99017.22;;;21.93;58.71
74678;BME280;67324;56.326;43.982;2023-07-20T08:52:03;99016.63;;;21.91;58.67
74678;BME280;67324;56.326;43.982;2023-07-20T08:54:30;99022.50;;;21.93;58.50
74678;BME280;67324;56.326;43.982;2023-07-20T08:57:02;99014.19;;;21.90;58.71
74678;BME280;67324;56.326;43.982;2023-07-20T08:59:29;99023.69;;;21.91;58.67
74678;BME280;67324;56.326;43.982;2023-07-20T09:01:56;99019.84;;;21.93;58.50
74678;BME280;67324;56.326;43.982;2023-07-20T09:04:22;99030.38;;;21.93;58.54
74678;BME280;67324;56.326;43.982;2023-07-20T09:06:49;99030.38;;;21.93;58.55
74678;BME280;67324;56.326;43.982;2023-07-20T09:09:15;99033.03;;;21.93;58.50
74678;BME280;67324;56.326;43.982;2023-07-20T09:11:41;99025.53;;;21.90;58.57
74678;BME280;67324;56.326;43.982;2023-07-20T09:14:07;99018.44;;;21.91;58.34
74678;BME280;67324;56.326;43.982;2023-07-20T09:16:49;99026.94;;;21.93;58.42
74678;BME280;67324;56.326;43.982;2023-07-20T09:19:16;99015.63;;;21.92;58.58
74678;BME280;67324;56.326;43.982;2023-07-20T09:21:50;99012.97;;;21.92;58.62
74678;BME280;67324;56.326;43.982;2023-07-20T09:24:20;99015.44;;;21.94;58.41
74678;BME280;67324;56.326;43.982;2023-07-20T09:26:47;98999.19;;;21.90;58.42
74678;BME280;67324;56.326;43.982;2023-07-20T09:29:14;99025.97;;;21.94;58.41
74678;BME280;67324;56.326;43.982;2023-07-20T09:31:58;99018.06;;;21.94;58.44
74678;BME280;67324;56.326;43.982;2023-07-20T09:34:25;99027.75;;;21.93;58.45
74678;BME280;67324;56.326;43.982;2023-07-20T09:36:51;99015.00;;;21.90;58.38
74678;BME280;67324;56.326;43.982;2023-07-20T09:39:17;99017.22;;;21.93;58.40
74678;BME280;67324;56.326;43.982;2023-07-20T09:41:43;99008.13;;;21.89;58.37
74678;BME280;67324;56.326;43.982;2023-07-20T09:44:10;99019.06;;;21.93;58.32
74678;BME280;67324;56.326;43.982;2023-07-20T09:47:03;99014.59;;;21.93;58.36
74678;BME280;67324;56.326;43.982;2023-07-20T09:49:28;99018.25;;;21.92;58.29
74678;BME280;67324;56.326;43.982;2023-07-20T09:52:13;99012.97;;;21.92;58.20
74678;BME280;67324;56.326;43.982;2023-07-20T09:54:40;99019.06;;;21.93;58.20
74678;BME280;67324;56.326;43.982;2023-07-20T09:57:07;99037.31;;;21.94;58.29
74678;BME280;67324;56.326;43.982;2023-07-20T09:59:38;99041.31;;;21.90;58.31
74678;BME280;67324;56.326;43.982;2023-07-20T10:02:15;99045.38;;;21.93;58.14
74678;BME280;67324;56.326;43.982;2023-07-20T10:04:45;99058.38;;;21.94;58.29
74678;BME280;67324;56.326;43.982;2023-07-20T10:07:12;99053.50;;;21.91;58.08
74678;BME280;67324;56.326;43.982;2023-07-20T10:09:59;99061.97;;;21.93;58.23
74678;BME280;67324;56.326;43.982;2023-07-20T10:12:30;99060.19;;;21.94;58.21
74678;BME280;67324;56.326;43.982;2023-07-20T10:15:20;99049.84;;;21.92;58.19
74678;BME280;67324;56.326;43.982;2023-07-20T10:20:29;99041.13;;;21.92;58.22
74678;BME280;67324;56.326;43.982;2023-07-20T10:22:57;99047.03;;;21.94;58.19
74678;BME280;67324;56.326;43.982;2023-07-20T10:25:23;99046.19;;;21.93;58.17
74678;BME280;67324;56.326;43.982;2023-07-20T10:27:49;99045.78;;;21.90;58.03
74678;BME280;67324;56.326;43.982;2023-07-20T10:30:17;99064.25;;;21.97;57.98
74678;BME280;67324;56.326;43.982;2023-07-20T10:32:44;99063.63;;;21.94;58.03
74678;BME280;67324;56.326;43.982;2023-07-20T10:35:14;99064.25;;;21.97;58.04
74678;BME280;67324;56.326;43.982;2023-07-20T10:40:33;99061.00;;;21.94;58.09
74678;BME280;67324;56.326;43.982;2023-07-20T10:43:08;99072.34;;;21.95;57.94
74678;BME280;67324;56.326;43.982;2023-07-20T10:48:03;99074.16;;;21.94;58.00
74678;BME280;67324;56.326;43.982;2023-07-20T10:50:30;99069.88;;;21.93;58.08
74678;BME280;67324;56.326;43.982;2023-07-20T10:53:17;99068.91;;;21.94;58.06
74678;BME280;67324;56.326;43.982;2023-07-20T10:56:11;99055.09;;;21.92;58.10
74678;BME280;67324;56.326;43.982;2023-07-20T10:58:40;99064.03;;;21.91;58.02
74678;BME280;67324;56.326;43.982;2023-07-20T11:01:08;99054.72;;;21.96;57.90
74678;BME280;67324;56.326;43.982;2023-07-20T11:03:38;99053.50;;;21.91;57.89
74678;BME280;67324;56.326;43.982;2023-07-20T11:08:55;99056.72;;;21.93;57.90
74678;BME280;67324;56.326;43.982;2023-07-20T11:11:32;99072.16;;;21.97;57.89
74678;BME280;67324;56.326;43.982;2023-07-20T11:14:03;99074.16;;;21.94;57.91
74678;BME280;67324;56.326;43.982;2023-07-20T11:19:06;99078.63;;;21.94;57.91
74678;BME280;67324;56.326;43.982;2023-07-20T11:21:41;99084.28;;;21.98;57.84
74678;BME280;67324;56.326;43.982;2023-07-20T11:24:07;99083.50;;;21.97;57.87
74678;BME280;67324;56.326;43.982;2023-07-20T11:26:53;99096.47;;;21.99;57.83
74678;BME280;67324;56.326;43.982;2023-07-20T11:29:21;99100.09;;;21.98;57.78
74678;BME280;67324;56.326;43.982;2023-07-20T11:31:49;99111.66;;;21.97;57.78
74678;BME280;67324;56.326;43.982;2023-07-20T11:34:16;99133.50;;;21.97;57.79
74678;BME280;67324;56.326;43.982;2023-07-20T11:36:45;99144.69;;;21.99;57.70
74678;BME280;67324;56.326;43.982;2023-07-20T11:39:12;99147.66;;;21.96;57.70
74678;BME280;67324;56.326;43.982;2023-07-20T11:41:43;99138.78;;;21.97;57.61
74678;BME280;67324;56.326;43.982;2023-07-20T11:44:10;99133.69;;;21.96;57.69
74678;BME280;67324;56.326;43.982;2023-07-20T11:46:39;99122.19;;;21.97;57.66
74678;BME280;67324;56.326;43.982;2023-07-20T11:49:05;99130.06;;;21.97;57.76
74678;BME280;67324;56.326;43.982;2023-07-20T11:51:32;99138.59;;;21.99;57.81
74678;BME280;67324;56.326;43.982;2023-07-20T11:53:58;99136.16;;;21.97;57.67
74678;BME280;67324;56.326;43.982;2023-07-20T11:56:27;99147.09;;;22.01;57.70
74678;BME280;67324;56.326;43.982;2023-07-20T11:59:00;99137.97;;;21.97;57.65
74678;BME280;67324;56.326;43.982;2023-07-20T12:01:28;99136.16;;;21.97;57.74
74678;BME280;67324;56.326;43.982;2023-07-20T12:03:56;99139.78;;;21.96;57.60
74678;BME280;67324;56.326;43.982;2023-07-20T12:06:27;99139.78;;;21.96;57.63
74678;BME280;67324;56.326;43.982;2023-07-20T12:08:59;99159.84;;;21.97;57.77
74678;BME280;67324;56.326;43.982;2023-07-20T12:11:36;99180.72;;;21.99;57.71
74678;BME280;67324;56.326;43.982;2023-07-20T12:14:07;99173.81;;;21.98;57.73
74678;BME280;67324;56.326;43.982;2023-07-20T12:16:33;99189.22;;;22.01;57.64
74678;BME280;67324;56.326;43.982;2023-07-20T12:19:02;99162.91;;;22.01;57.63
74678;BME280;67324;56.326;43.982;2023-07-20T12:21:30;99160.25;;;22.01;57.67
74678;BME280;67324;56.326;43.982;2023-07-20T12:23:57;99165.91;;;21.98;57.65
74678;BME280;67324;56.326;43.982;2023-07-20T12:26:25;99162.09;;;22.00;57.65
74678;BME280;67324;56.326;43.982;2023-07-20T12:28:51;99162.09;;;22.00;57.71
74678;BME280;67324;56.326;43.982;2023-07-20T12:31:17;99159.28;;;22.02;57.63
74678;BME280;67324;56.326;43.982;2023-07-20T12:33:43;99160.25;;;22.01;57.66
74678;BME280;67324;56.326;43.982;2023-07-20T12:36:27;99168.16;;;22.01;57.63
74678;BME280;67324;56.326;43.982;2023-07-20T12:38:53;99167.19;;;22.02;57.70
74678;BME280;67324;56.326;43.982;2023-07-20T12:41:19;99182.97;;;22.02;57.64
74678;BME280;67324;56.326;43.982;2023-07-20T12:43:45;99179.09;;;21.98;57.60
74678;BME280;67324;56.326;43.982;2023-07-20T12:46:12;99185.59;;;22.02;57.58
74678;BME280;67324;56.326;43.982;2023-07-20T12:48:39;99182.16;;;22.01;57.61
74678;BME280;67324;56.326;43.982;2023-07-20T12:51:08;99189.03;;;22.02;57.59
74678;BME280;67324;56.326;43.982;2023-07-20T12:53:34;99176.91;;;22.01;57.67
74678;BME280;67324;56.326;43.982;2023-07-20T12:56:00;99182.34;;;22.00;57.80
74678;BME280;67324;56.326;43.982;2023-07-20T12:58:26;99188.25;;;22.02;57.49
74678;BME280;67324;56.326;43.982;2023-07-20T13:00:52;99179.31;;;22.03;57.62
74678;BME280;67324;56.326;43.982;2023-07-20T13:03:18;99176.28;;;21.99;57.58
74678;BME280;67324;56.326;43.982;2023-07-20T13:05:46;99177.25;;;21.98;57.54
74678;BME280;67324;56.326;43.982;2023-07-20T13:08:12;99193.69;;;22.00;57.61
74678;BME280;67324;56.326;43.982;2023-07-20T13:10:56;99190.88;;;22.02;57.59
74678;BME280;67324;56.326;43.982;2023-07-20T13:13:22;99218.00;;;22.02;57.52
74678;BME280;67324;56.326;43.982;2023-07-20T13:15:48;99230.16;;;22.03;57.53
74678;BME280;67324;56.326;43.982;2023-07-20T13:18:14;99203.41;;;22.00;57.72
74678;BME280;67324;56.326;43.982;2023-07-20T13:20:40;99184.34;;;21.98;57.55